Terminal Aerodrome Forecast
Issued by NWS Lake Charles, LA

Home | Current Version | Previous Version | Text Only | Print | Product List | Glossary On
Versions: 1 2 3 4 5 6 7 8 9 10 11 12 13 14 15
000
FTUS44 KLCH 272300
TAFLFT
TAF
KLFT 272330Z 2800/2824 12010KT P6SM VCTS SCT030CB SCT050
      TEMPO 2800/2801 VRB15G25KT 2SM TSRA BKN030CB OVC050
     FM280100 10005KT P6SM VCSH SCT030
     FM281600 14009KT P6SM VCTS SCT030CB SCT050 PROB30 2818/2824
      VRB15G25KT 2SM TSRA BKN030CB OVC050=

USA.gov is the U.S. government's official web portal to all federal, state and local government web resources and services.